createdAt,value
2018-07-24T00:00:43.256Z,17.30
2018-07-24T00:03:11.023Z,17.30
2018-07-24T00:05:38.811Z,17.30
2018-07-24T00:08:06.581Z,17.20
2018-07-24T00:10:34.338Z,17.20
2018-07-24T00:13:02.217Z,17.20
2018-07-24T00:15:29.987Z,17.10
2018-07-24T00:18:03.863Z,17.10
2018-07-24T00:20:31.641Z,17.10
2018-07-24T00:22:59.474Z,17.00
2018-07-24T00:25:27.186Z,17.00
2018-07-24T00:27:54.964Z,16.90
2018-07-24T00:30:22.845Z,16.90
2018-07-24T00:32:50.550Z,16.90
2018-07-24T00:35:18.289Z,16.80
2018-07-24T00:37:45.994Z,16.70
2018-07-24T00:40:13.673Z,16.70
2018-07-24T00:42:41.459Z,16.70
2018-07-24T00:45:09.205Z,16.70
2018-07-24T00:47:37.123Z,16.60
2018-07-24T00:50:04.978Z,16.60
2018-07-24T00:52:32.865Z,16.50
2018-07-24T00:57:28.178Z,16.50
2018-07-24T00:59:55.924Z,16.50
2018-07-24T01:02:23.850Z,16.50
2018-07-24T01:04:51.610Z,16.50
2018-07-24T01:07:19.385Z,16.50
2018-07-24T01:09:47.134Z,16.50
2018-07-24T01:12:14.949Z,16.40
2018-07-24T01:14:42.868Z,16.40
2018-07-24T01:19:38.432Z,16.30
2018-07-24T01:22:06.323Z,16.20
2018-07-24T01:24:35.366Z,16.20
2018-07-24T01:27:03.332Z,16.20
2018-07-24T01:29:31.158Z,16.20
2018-07-24T01:31:58.971Z,16.20
2018-07-24T01:34:26.638Z,16.10
2018-07-24T01:36:54.455Z,16.10
2018-07-24T01:39:22.268Z,16.10
2018-07-24T01:41:49.958Z,16.00
2018-07-24T01:44:17.773Z,16.00
2018-07-24T01:46:45.698Z,16.00
2018-07-24T01:49:13.433Z,15.90
2018-07-24T01:51:41.149Z,15.90
2018-07-24T01:54:08.905Z,15.80
2018-07-24T01:56:36.642Z,15.80
2018-07-24T01:59:04.606Z,15.80
2018-07-24T02:01:32.306Z,15.70
2018-07-24T02:06:27.579Z,15.70
2018-07-24T02:08:55.305Z,15.70
2018-07-24T02:11:23.126Z,15.60
2018-07-24T02:13:50.867Z,15.60
2018-07-24T02:16:19.185Z,15.70
2018-07-24T02:18:47.154Z,15.60
2018-07-24T02:21:14.825Z,15.60
2018-07-24T02:23:42.565Z,15.60
2018-07-24T02:26:10.292Z,15.60
2018-07-24T02:28:38.045Z,15.60
2018-07-24T02:31:05.846Z,15.60
2018-07-24T02:33:33.554Z,15.60
2018-07-24T02:36:01.633Z,15.60
2018-07-24T02:38:29.349Z,15.50
2018-07-24T02:40:57.099Z,15.50
2018-07-24T02:43:24.857Z,15.40
2018-07-24T02:45:52.583Z,15.40
2018-07-24T02:48:20.385Z,15.40
2018-07-24T02:50:48.120Z,15.40
2018-07-24T02:53:15.851Z,15.50
2018-07-24T02:55:43.619Z,15.50
2018-07-24T02:58:11.356Z,15.40
2018-07-24T03:00:39.151Z,15.40
2018-07-24T03:03:06.990Z,15.40
2018-07-24T03:05:34.669Z,15.30
2018-07-24T03:08:03.049Z,15.30
2018-07-24T03:10:30.777Z,15.20
2018-07-24T03:12:58.428Z,15.10
2018-07-24T03:15:26.188Z,15.20
2018-07-24T03:17:53.836Z,15.20
2018-07-24T03:20:21.545Z,15.20
2018-07-24T03:22:49.242Z,15.10
2018-07-24T03:25:17.091Z,15.10
2018-07-24T03:27:44.846Z,15.20
2018-07-24T03:30:12.597Z,15.10
2018-07-24T03:35:07.954Z,15.00
2018-07-24T03:40:03.422Z,15.00
2018-07-24T03:42:31.126Z,15.00
2018-07-24T03:44:59.115Z,14.90
2018-07-24T03:47:26.777Z,14.90
2018-07-24T03:49:54.534Z,14.90
2018-07-24T03:52:22.968Z,14.80
2018-07-24T03:54:50.688Z,14.80
2018-07-24T03:57:18.383Z,14.80
2018-07-24T03:59:46.098Z,14.80
2018-07-24T04:02:14.280Z,14.80
2018-07-24T04:04:42.016Z,14.70
2018-07-24T04:07:09.779Z,14.80
2018-07-24T04:09:37.908Z,14.80
2018-07-24T04:12:06.794Z,14.80
2018-07-24T04:14:35.866Z,14.70
2018-07-24T04:17:03.689Z,14.70
2018-07-24T04:21:59.025Z,14.80
2018-07-24T04:24:26.807Z,14.80
2018-07-24T04:26:55.439Z,14.80
2018-07-24T04:29:23.278Z,14.80
2018-07-24T04:31:51.008Z,14.80
2018-07-24T04:39:13.953Z,14.70
2018-07-24T04:41:41.690Z,14.70
2018-07-24T04:44:09.357Z,14.80
2018-07-24T04:46:37.128Z,14.80
2018-07-24T04:49:04.998Z,14.90
2018-07-24T04:51:32.810Z,14.90
2018-07-24T04:54:00.634Z,15.00
2018-07-24T04:56:28.326Z,15.00
2018-07-24T04:58:56.037Z,15.10
2018-07-24T05:01:23.872Z,15.10
2018-07-24T05:03:51.505Z,15.10
2018-07-24T05:06:19.178Z,15.20
2018-07-24T05:08:46.834Z,15.20
2018-07-24T05:11:15.022Z,15.20
2018-07-24T05:13:42.677Z,15.30
2018-07-24T05:16:10.346Z,15.40
2018-07-24T05:18:37.969Z,15.40
2018-07-24T05:21:05.844Z,15.50
2018-07-24T05:23:33.545Z,15.50
2018-07-24T05:26:01.207Z,15.60
2018-07-24T05:28:28.883Z,15.60
2018-07-24T05:30:56.653Z,15.70
2018-07-24T05:33:24.351Z,15.80
2018-07-24T05:35:51.998Z,15.80
2018-07-24T05:38:19.767Z,15.90
2018-07-24T05:40:47.484Z,15.90
2018-07-24T05:43:15.765Z,16.00
2018-07-24T05:45:43.530Z,16.10
2018-07-24T05:48:11.167Z,16.10
2018-07-24T05:53:06.524Z,16.30
2018-07-24T05:55:34.188Z,16.40
2018-07-24T05:58:01.826Z,16.40
2018-07-24T06:00:29.564Z,16.50
2018-07-24T06:02:57.291Z,16.60
2018-07-24T06:05:25.015Z,16.70
2018-07-24T06:07:52.790Z,16.80
2018-07-24T06:10:20.434Z,16.90
2018-07-24T06:12:48.138Z,16.90
2018-07-24T06:15:15.877Z,17.00
2018-07-24T06:17:43.614Z,17.10
2018-07-24T06:20:11.561Z,17.20
2018-07-24T06:22:39.213Z,17.30
2018-07-24T06:25:07.261Z,17.40
2018-07-24T06:27:35.673Z,17.50
2018-07-24T06:30:04.541Z,17.50
2018-07-24T06:32:32.250Z,17.60
2018-07-24T06:35:00.086Z,17.60
2018-07-24T06:37:27.822Z,17.70
2018-07-24T06:39:55.517Z,17.80
2018-07-24T06:42:23.356Z,17.90
2018-07-24T06:44:51.013Z,18.00
2018-07-24T06:47:18.865Z,18.00
2018-07-24T06:49:46.615Z,18.10
2018-07-24T06:52:14.318Z,18.20
2018-07-24T06:54:42.035Z,18.30
2018-07-24T06:57:10.043Z,18.40
2018-07-24T06:59:42.009Z,18.50
2018-07-24T07:02:09.786Z,18.60
2018-07-24T07:04:37.471Z,18.70
2018-07-24T07:07:05.362Z,18.80
2018-07-24T07:09:33.035Z,18.90
2018-07-24T07:12:00.739Z,18.90
2018-07-24T07:14:28.441Z,19.00
2018-07-24T07:16:56.190Z,19.10
2018-07-24T07:19:23.917Z,19.20
2018-07-24T07:21:51.606Z,19.40
2018-07-24T07:24:19.310Z,19.60
2018-07-24T07:26:47.178Z,19.80
2018-07-24T07:29:14.899Z,19.90
2018-07-24T07:31:42.586Z,20.10
2018-07-24T07:34:10.253Z,20.20
2018-07-24T07:39:07.825Z,20.40
2018-07-24T07:41:35.474Z,20.60
2018-07-24T07:44:03.267Z,20.60
2018-07-24T07:46:30.984Z,20.80
2018-07-24T07:48:58.682Z,20.80
2018-07-24T07:51:26.504Z,20.90
2018-07-24T07:53:54.162Z,21.00
2018-07-24T07:56:22.038Z,21.10
2018-07-24T07:58:49.743Z,21.10
2018-07-24T08:01:17.464Z,21.30
2018-07-24T08:03:45.222Z,21.40
2018-07-24T08:08:40.467Z,21.50
2018-07-24T08:11:08.198Z,21.60
2018-07-24T08:13:36.144Z,21.70
2018-07-24T08:16:03.849Z,21.80
2018-07-24T08:18:31.503Z,21.80
2018-07-24T08:20:59.211Z,22.00
2018-07-24T08:23:27.145Z,22.00
2018-07-24T08:25:54.822Z,22.20
2018-07-24T08:28:22.567Z,22.30
2018-07-24T08:30:50.634Z,22.40
2018-07-24T08:33:18.258Z,22.50
2018-07-24T08:35:46.164Z,22.50
2018-07-24T08:38:13.809Z,22.60
2018-07-24T08:40:41.491Z,22.80
2018-07-24T08:43:09.171Z,22.80
2018-07-24T08:45:36.938Z,22.90
2018-07-24T08:48:04.759Z,23.00
2018-07-24T08:50:32.394Z,23.10
2018-07-24T08:53:00.176Z,23.20
2018-07-24T08:55:28.009Z,23.40
2018-07-24T08:57:55.463Z,23.50
2018-07-24T09:00:23.163Z,23.60
2018-07-24T09:02:50.793Z,23.70
2018-07-24T09:05:18.484Z,23.90
2018-07-24T09:07:46.252Z,24.00
2018-07-24T09:10:14.633Z,24.10
2018-07-24T09:12:42.305Z,24.20
2018-07-24T09:15:10.131Z,24.40
2018-07-24T09:17:37.834Z,24.50
2018-07-24T09:20:05.536Z,24.60
2018-07-24T09:22:33.279Z,24.80
2018-07-24T09:25:00.955Z,25.00
2018-07-24T09:27:28.574Z,25.00
2018-07-24T09:29:56.299Z,25.10
2018-07-24T09:32:24.007Z,25.20
2018-07-24T09:34:51.696Z,25.30
2018-07-24T09:37:19.373Z,25.50
2018-07-24T09:39:47.158Z,25.60
2018-07-24T09:42:14.813Z,25.70
2018-07-24T09:44:42.490Z,25.90
2018-07-24T09:47:10.173Z,26.00
2018-07-24T09:49:37.842Z,26.20
2018-07-24T09:54:33.130Z,26.50
2018-07-24T09:57:00.826Z,26.50
2018-07-24T09:59:28.588Z,26.60
2018-07-24T10:01:56.189Z,26.70
2018-07-24T10:04:23.861Z,26.90
2018-07-24T10:06:51.574Z,27.00
2018-07-24T10:09:19.223Z,27.20
2018-07-24T10:11:46.928Z,27.30
2018-07-24T10:14:14.586Z,27.40
2018-07-24T10:16:42.346Z,27.50
2018-07-24T10:19:09.906Z,27.50
2018-07-24T10:21:37.617Z,27.60
2018-07-24T10:24:05.393Z,27.70
2018-07-24T10:26:33.054Z,27.70
2018-07-24T10:29:01.194Z,27.80
2018-07-24T10:31:28.893Z,27.90
2018-07-24T10:33:56.558Z,27.90
2018-07-24T10:36:24.338Z,28.00
2018-07-24T10:38:51.997Z,28.20
2018-07-24T10:41:19.688Z,28.30
2018-07-24T10:43:47.669Z,28.30
2018-07-24T10:46:15.375Z,28.20
2018-07-24T10:48:43.080Z,28.30
2018-07-24T10:51:10.788Z,28.40
2018-07-24T10:53:38.504Z,28.50
2018-07-24T10:56:06.461Z,28.60
2018-07-24T10:58:34.337Z,28.70
2018-07-24T11:01:02.040Z,28.80
2018-07-24T11:03:30.024Z,28.80
2018-07-24T11:05:57.771Z,28.90
2018-07-24T11:08:26.693Z,29.00
2018-07-24T11:10:54.519Z,29.00
2018-07-24T11:13:22.321Z,29.20
2018-07-24T11:15:49.956Z,29.30
2018-07-24T11:18:17.686Z,29.30
2018-07-24T11:20:45.366Z,29.50
2018-07-24T11:23:13.189Z,29.60
2018-07-24T11:25:40.859Z,29.60
2018-07-24T11:28:08.704Z,29.70
2018-07-24T11:30:36.428Z,29.70
2018-07-24T11:33:04.188Z,29.80
2018-07-24T11:35:32.079Z,29.80
2018-07-24T11:37:59.749Z,29.90
2018-07-24T11:40:27.567Z,30.00
2018-07-24T11:42:55.505Z,30.00
2018-07-24T11:45:23.337Z,29.90
2018-07-24T11:47:51.079Z,30.00
2018-07-24T11:50:18.772Z,30.10
2018-07-24T11:52:46.499Z,30.10
2018-07-24T11:55:14.133Z,30.10
2018-07-24T11:57:41.965Z,30.00
2018-07-24T12:00:09.775Z,29.80
2018-07-24T12:02:37.451Z,29.50
2018-07-24T12:05:05.316Z,29.60
2018-07-24T12:07:33.034Z,29.70
2018-07-24T12:12:28.490Z,30.00
2018-07-24T12:14:56.273Z,29.90
2018-07-24T12:17:23.989Z,29.90
2018-07-24T12:19:51.856Z,30.00
2018-07-24T12:22:19.984Z,29.90
2018-07-24T12:24:47.745Z,30.00
2018-07-24T12:27:15.499Z,30.10
2018-07-24T12:29:43.232Z,30.10
2018-07-24T12:32:10.981Z,30.30
2018-07-24T12:34:38.707Z,30.30
2018-07-24T12:37:06.426Z,30.30
2018-07-24T12:39:34.099Z,30.30
2018-07-24T12:42:01.799Z,30.30
2018-07-24T12:44:29.739Z,30.30
2018-07-24T12:46:57.434Z,30.40
2018-07-24T12:49:25.105Z,30.40
2018-07-24T12:51:52.843Z,30.40
2018-07-24T12:54:20.601Z,30.40
2018-07-24T12:56:48.262Z,30.30
2018-07-24T13:01:43.500Z,30.20
2018-07-24T13:04:11.205Z,30.20
2018-07-24T13:06:38.901Z,30.20
2018-07-24T13:09:08.531Z,30.40
2018-07-24T13:11:36.230Z,30.40
2018-07-24T13:14:03.988Z,30.30
2018-07-24T13:16:31.681Z,30.30
2018-07-24T13:18:59.379Z,30.30
2018-07-24T13:21:27.094Z,30.30
2018-07-24T13:24:10.052Z,30.20
2018-07-24T13:26:37.966Z,30.30
2018-07-24T13:29:05.702Z,30.30
2018-07-24T13:31:33.398Z,30.30
2018-07-24T13:34:01.156Z,30.30
2018-07-24T13:36:28.972Z,30.40
2018-07-24T13:38:56.649Z,30.40
2018-07-24T13:41:24.748Z,30.30
2018-07-24T13:43:52.478Z,30.30
2018-07-24T13:46:20.279Z,30.30
2018-07-24T13:48:48.035Z,30.20
2018-07-24T13:53:43.345Z,30.20
2018-07-24T13:56:11.048Z,30.30
2018-07-24T13:58:38.869Z,30.30
2018-07-24T14:01:06.848Z,30.30
2018-07-24T14:03:34.829Z,30.30
2018-07-24T14:06:02.595Z,30.10
2018-07-24T14:08:30.364Z,29.90
2018-07-24T14:10:57.946Z,29.80
2018-07-24T14:13:25.590Z,29.80
2018-07-24T14:27:25.665Z,30.10
2018-07-24T14:35:39.994Z,29.90
2018-07-24T14:44:15.874Z,30.00
2018-07-24T14:46:44.885Z,30.00
2018-07-24T14:49:12.661Z,30.00
2018-07-24T14:54:33.310Z,30.00
2018-07-24T14:57:19.520Z,30.00
2018-07-24T15:02:41.963Z,30.00
2018-07-24T15:05:09.968Z,30.00
2018-07-24T15:07:37.866Z,30.00
2018-07-24T15:10:05.604Z,30.00
2018-07-24T15:12:33.387Z,30.00
2018-07-24T15:15:01.436Z,29.90
2018-07-24T15:17:29.202Z,29.80
2018-07-24T15:19:56.859Z,29.80
2018-07-24T15:27:20.381Z,29.90
2018-07-24T15:32:15.767Z,29.80
2018-07-24T15:34:44.570Z,29.80
2018-07-24T15:37:12.223Z,29.80
2018-07-24T15:39:39.962Z,29.80
2018-07-24T15:42:07.674Z,29.80
2018-07-24T15:44:35.477Z,29.80
2018-07-24T15:47:03.244Z,29.80
2018-07-24T15:49:31.026Z,29.80
2018-07-24T15:51:58.786Z,29.80
2018-07-24T15:54:26.516Z,29.70
2018-07-24T15:56:54.275Z,29.80
2018-07-24T15:59:22.070Z,29.80
2018-07-24T16:01:49.868Z,29.80
2018-07-24T16:04:17.521Z,29.80
2018-07-24T16:06:45.354Z,29.90
2018-07-24T16:09:13.521Z,29.80
2018-07-24T16:11:41.354Z,29.80
2018-07-24T16:14:09.419Z,29.70
2018-07-24T16:16:37.600Z,29.70
2018-07-24T16:19:05.495Z,29.70
2018-07-24T16:21:33.182Z,29.70
2018-07-24T16:24:00.846Z,29.70
2018-07-24T16:26:28.560Z,29.70
2018-07-24T16:28:56.354Z,29.60
2018-07-24T16:31:24.101Z,29.60
2018-07-24T16:33:51.833Z,29.60
2018-07-24T16:36:20.788Z,29.50
2018-07-24T16:38:48.543Z,29.50
2018-07-24T16:41:16.281Z,29.50
2018-07-24T16:43:44.395Z,29.50
2018-07-24T16:46:12.143Z,29.50
2018-07-24T16:48:39.957Z,29.40
2018-07-24T16:51:07.727Z,29.40
2018-07-24T16:53:35.474Z,29.40
2018-07-24T16:56:03.205Z,29.40
2018-07-24T16:58:31.023Z,29.30
2018-07-24T17:00:58.781Z,29.40
2018-07-24T17:03:26.626Z,29.40
2018-07-24T17:05:54.355Z,29.30
2018-07-24T17:08:22.251Z,29.20
2018-07-24T17:10:50.116Z,29.20
2018-07-24T17:13:17.842Z,29.20
2018-07-24T17:15:45.496Z,29.10
2018-07-24T17:18:13.179Z,29.10
2018-07-24T17:20:41.045Z,29.00
2018-07-24T17:25:36.529Z,29.00
2018-07-24T17:28:04.338Z,28.90
2018-07-24T17:32:59.560Z,28.90
2018-07-24T17:35:27.232Z,28.90
2018-07-24T17:37:54.975Z,28.80
2018-07-24T17:40:22.808Z,28.80
2018-07-24T17:42:50.596Z,28.80
2018-07-24T17:45:18.298Z,28.80
2018-07-24T17:47:46.075Z,28.90
2018-07-24T17:50:13.797Z,28.80
2018-07-24T17:52:41.526Z,28.90
2018-07-24T17:55:09.385Z,28.90
2018-07-24T17:57:37.733Z,28.80
2018-07-24T18:00:05.511Z,28.80
2018-07-24T18:02:33.460Z,28.90
2018-07-24T18:05:01.542Z,29.00
2018-07-24T18:07:29.410Z,29.00
2018-07-24T18:09:57.089Z,29.00
2018-07-24T18:12:24.972Z,29.00
2018-07-24T18:14:52.816Z,29.00
2018-07-24T18:17:20.590Z,29.00
2018-07-24T18:19:48.325Z,29.00
2018-07-24T18:22:16.045Z,28.90
2018-07-24T18:27:11.473Z,28.90
2018-07-24T18:29:39.322Z,28.80
2018-07-24T18:32:07.457Z,28.50
2018-07-24T18:34:35.173Z,28.40
2018-07-24T18:37:02.917Z,28.30
2018-07-24T18:39:30.693Z,28.10
2018-07-24T18:41:58.334Z,27.90
2018-07-24T18:44:26.114Z,27.80
2018-07-24T18:46:53.867Z,27.60
2018-07-24T18:49:21.562Z,27.50
2018-07-24T18:51:49.316Z,27.40
2018-07-24T18:54:17.153Z,27.40
2018-07-24T18:56:44.854Z,27.40
2018-07-24T18:59:12.582Z,27.40
2018-07-24T19:01:40.267Z,27.30
2018-07-24T19:04:08.011Z,27.20
2018-07-24T19:06:35.671Z,27.20
2018-07-24T19:09:05.297Z,27.00
2018-07-24T19:11:33.044Z,26.80
2018-07-24T19:14:00.811Z,26.60
2018-07-24T19:16:33.989Z,26.50
2018-07-24T19:19:01.895Z,26.40
2018-07-24T19:21:29.659Z,26.20
2018-07-24T19:23:57.380Z,26.00
2018-07-24T19:28:52.822Z,25.80
2018-07-24T19:31:20.669Z,25.70
2018-07-24T19:33:48.333Z,25.60
2018-07-24T19:36:16.110Z,25.50
2018-07-24T19:38:43.975Z,25.40
2018-07-24T19:41:11.717Z,25.30
2018-07-24T19:43:39.489Z,25.20
2018-07-24T19:46:07.192Z,25.10
2018-07-24T19:48:34.830Z,25.00
2018-07-24T19:51:02.593Z,25.00
2018-07-24T19:53:30.249Z,24.90
2018-07-24T19:55:58.038Z,24.70
2018-07-24T19:58:26.441Z,24.60
2018-07-24T20:00:54.282Z,24.50
2018-07-24T20:03:22.037Z,24.40
2018-07-24T20:08:17.333Z,24.30
2018-07-24T20:10:45.079Z,24.20
2018-07-24T20:13:12.789Z,24.10
2018-07-24T20:15:40.935Z,24.00
2018-07-24T20:18:08.797Z,23.90
2018-07-24T20:20:36.494Z,23.90
2018-07-24T20:23:04.238Z,23.80
2018-07-24T20:25:32.664Z,23.70
2018-07-24T20:28:00.328Z,23.60
2018-07-24T20:30:28.141Z,23.60
2018-07-24T20:32:55.878Z,23.50
2018-07-24T20:35:23.732Z,23.40
2018-07-24T20:37:51.424Z,23.30
2018-07-24T20:40:19.231Z,23.20
2018-07-24T20:42:46.946Z,23.20
2018-07-24T20:45:14.624Z,23.10
2018-07-24T20:47:42.331Z,23.10
2018-07-24T20:50:10.010Z,23.00
2018-07-24T20:52:37.740Z,22.90
2018-07-24T20:55:05.445Z,22.80
2018-07-24T20:57:33.862Z,22.70
2018-07-24T21:00:01.694Z,22.70
2018-07-24T21:02:29.358Z,22.60
2018-07-24T21:04:57.144Z,22.50
2018-07-24T21:07:24.943Z,22.50
2018-07-24T21:12:20.289Z,22.50
2018-07-24T21:14:48.065Z,22.50
2018-07-24T21:17:15.797Z,22.40
2018-07-24T21:19:43.674Z,22.30
2018-07-24T21:22:11.525Z,22.30
2018-07-24T21:24:39.225Z,22.20
2018-07-24T21:27:07.027Z,22.20
2018-07-24T21:29:34.753Z,22.00
2018-07-24T21:32:02.719Z,21.90
2018-07-24T21:34:30.471Z,21.80
2018-07-24T21:36:58.178Z,21.80
2018-07-24T21:39:25.864Z,21.70
2018-07-24T21:41:53.680Z,21.60
2018-07-24T21:44:21.447Z,21.50
2018-07-24T21:46:49.155Z,21.50
2018-07-24T21:49:16.908Z,21.40
2018-07-24T21:54:12.186Z,21.40
2018-07-24T21:56:39.982Z,21.30
2018-07-24T21:59:07.905Z,21.20
2018-07-24T22:01:36.497Z,21.10
2018-07-24T22:04:05.311Z,21.00
2018-07-24T22:06:33.936Z,20.90
2018-07-24T22:09:02.673Z,20.90
2018-07-24T22:11:31.132Z,20.80
2018-07-24T22:13:59.720Z,20.80
2018-07-24T22:16:27.438Z,20.80
2018-07-24T22:18:55.208Z,20.70
2018-07-24T22:21:23.062Z,20.70
2018-07-24T22:23:50.842Z,20.70
2018-07-24T22:26:18.764Z,20.60
2018-07-24T22:28:46.569Z,20.50
2018-07-24T22:31:14.386Z,20.40
2018-07-24T22:33:42.225Z,20.30
2018-07-24T22:36:10.166Z,20.30
2018-07-24T22:38:37.954Z,20.20
2018-07-24T22:41:05.677Z,20.10
2018-07-24T22:43:33.472Z,20.10
2018-07-24T22:48:29.670Z,19.90
2018-07-24T22:50:57.415Z,19.90
2018-07-24T22:53:25.128Z,19.80
2018-07-24T22:55:52.890Z,19.80
2018-07-24T22:58:20.602Z,19.70
2018-07-24T23:00:48.269Z,19.70
2018-07-24T23:03:16.045Z,19.70
2018-07-24T23:05:43.800Z,19.60
2018-07-24T23:08:12.196Z,19.60
2018-07-24T23:10:40.005Z,19.50
2018-07-24T23:13:07.690Z,19.50
2018-07-24T23:15:35.431Z,19.40
2018-07-24T23:18:03.130Z,19.40
2018-07-24T23:20:31.546Z,19.40
2018-07-24T23:22:59.224Z,19.40
2018-07-24T23:25:26.916Z,19.30
2018-07-24T23:27:54.666Z,19.30
2018-07-24T23:30:22.445Z,19.20
2018-07-24T23:32:50.278Z,19.20
2018-07-24T23:35:18.050Z,19.10
2018-07-24T23:37:45.745Z,19.00
2018-07-24T23:40:13.654Z,19.00
2018-07-24T23:45:08.942Z,18.90
2018-07-24T23:47:36.633Z,18.90
2018-07-24T23:50:04.866Z,18.90
2018-07-24T23:52:32.694Z,19.00
2018-07-24T23:55:00.387Z,18.90
2018-07-24T23:57:28.090Z,18.80
2018-07-24T23:59:55.949Z,18.70
